sensor_id;sensor_type;location;lat;lon;timestamp;P1;durP1;ratioP1;P2;durP2;ratioP2
77206;SDS011;66190;50.708;7.906;2023-03-24T00:02:16;4.75;;;1.50;;
77206;SDS011;66190;50.708;7.906;2023-03-24T00:04:42;4.78;;;1.75;;
77206;SDS011;66190;50.708;7.906;2023-03-24T00:07:08;5.68;;;1.92;;
77206;SDS011;66190;50.708;7.906;2023-03-24T00:09:42;5.38;;;1.70;;
77206;SDS011;66190;50.708;7.906;2023-03-24T00:12:08;6.80;;;1.90;;
77206;SDS011;66190;50.708;7.906;2023-03-24T00:14:35;5.82;;;2.05;;
77206;SDS011;66190;50.708;7.906;2023-03-24T00:17:03;5.90;;;1.90;;
77206;SDS011;66190;50.708;7.906;2023-03-24T00:19:29;5.18;;;1.50;;
77206;SDS011;66190;50.708;7.906;2023-03-24T00:21:57;6.03;;;1.85;;
77206;SDS011;66190;50.708;7.906;2023-03-24T00:24:24;6.45;;;1.90;;
77206;SDS011;66190;50.708;7.906;2023-03-24T00:26:50;5.95;;;1.52;;
77206;SDS011;66190;50.708;7.906;2023-03-24T00:29:16;7.57;;;2.17;;
77206;SDS011;66190;50.708;7.906;2023-03-24T00:31:41;6.53;;;1.95;;
77206;SDS011;66190;50.708;7.906;2023-03-24T00:34:07;5.83;;;1.63;;
77206;SDS011;66190;50.708;7.906;2023-03-24T00:36:34;5.30;;;2.00;;
77206;SDS011;66190;50.708;7.906;2023-03-24T00:39:00;5.50;;;1.88;;
77206;SDS011;66190;50.708;7.906;2023-03-24T00:41:28;5.70;;;1.50;;
77206;SDS011;66190;50.708;7.906;2023-03-24T00:43:55;4.95;;;1.77;;
77206;SDS011;66190;50.708;7.906;2023-03-24T00:46:22;4.65;;;1.60;;
77206;SDS011;66190;50.708;7.906;2023-03-24T00:48:59;4.80;;;1.63;;
77206;SDS011;66190;50.708;7.906;2023-03-24T00:51:30;5.85;;;1.95;;
77206;SDS011;66190;50.708;7.906;2023-03-24T00:53:58;5.10;;;1.47;;
77206;SDS011;66190;50.708;7.906;2023-03-24T00:56:24;6.57;;;1.85;;
77206;SDS011;66190;50.708;7.906;2023-03-24T00:58:51;5.20;;;1.60;;
77206;SDS011;66190;50.708;7.906;2023-03-24T01:01:18;4.90;;;1.70;;
77206;SDS011;66190;50.708;7.906;2023-03-24T01:03:46;5.18;;;1.77;;
77206;SDS011;66190;50.708;7.906;2023-03-24T01:06:15;5.20;;;1.88;;
77206;SDS011;66190;50.708;7.906;2023-03-24T01:08:42;4.75;;;1.50;;
77206;SDS011;66190;50.708;7.906;2023-03-24T01:11:10;5.13;;;1.77;;
77206;SDS011;66190;50.708;7.906;2023-03-24T01:13:37;5.95;;;1.77;;
77206;SDS011;66190;50.708;7.906;2023-03-24T01:16:03;5.78;;;1.80;;
77206;SDS011;66190;50.708;7.906;2023-03-24T01:18:30;5.15;;;1.70;;
77206;SDS011;66190;50.708;7.906;2023-03-24T01:20:56;6.57;;;1.95;;
77206;SDS011;66190;50.708;7.906;2023-03-24T01:23:23;5.27;;;1.40;;
77206;SDS011;66190;50.708;7.906;2023-03-24T01:25:50;5.30;;;1.90;;
77206;SDS011;66190;50.708;7.906;2023-03-24T01:28:18;5.07;;;1.80;;
77206;SDS011;66190;50.708;7.906;2023-03-24T01:30:49;5.95;;;1.75;;
77206;SDS011;66190;50.708;7.906;2023-03-24T01:33:16;4.70;;;1.60;;
77206;SDS011;66190;50.708;7.906;2023-03-24T01:35:41;5.03;;;1.60;;
77206;SDS011;66190;50.708;7.906;2023-03-24T01:38:07;6.40;;;1.80;;
77206;SDS011;66190;50.708;7.906;2023-03-24T01:40:35;5.88;;;1.60;;
77206;SDS011;66190;50.708;7.906;2023-03-24T01:43:02;4.93;;;1.70;;
77206;SDS011;66190;50.708;7.906;2023-03-24T01:45:38;6.75;;;1.67;;
77206;SDS011;66190;50.708;7.906;2023-03-24T01:48:08;5.05;;;1.73;;
77206;SDS011;66190;50.708;7.906;2023-03-24T01:50:37;4.97;;;1.77;;
77206;SDS011;66190;50.708;7.906;2023-03-24T01:53:04;6.03;;;1.80;;
77206;SDS011;66190;50.708;7.906;2023-03-24T01:55:31;6.63;;;2.30;;
77206;SDS011;66190;50.708;7.906;2023-03-24T01:57:57;5.17;;;2.00;;
77206;SDS011;66190;50.708;7.906;2023-03-24T02:00:26;6.55;;;1.85;;
77206;SDS011;66190;50.708;7.906;2023-03-24T02:02:53;6.97;;;2.20;;
77206;SDS011;66190;50.708;7.906;2023-03-24T02:05:25;6.10;;;2.33;;
77206;SDS011;66190;50.708;7.906;2023-03-24T02:10:25;7.45;;;2.35;;
77206;SDS011;66190;50.708;7.906;2023-03-24T02:12:51;7.45;;;2.50;;
77206;SDS011;66190;50.708;7.906;2023-03-24T02:15:17;6.43;;;2.30;;
77206;SDS011;66190;50.708;7.906;2023-03-24T02:23:30;6.20;;;2.38;;
77206;SDS011;66190;50.708;7.906;2023-03-24T02:26:20;6.82;;;2.78;;
77206;SDS011;66190;50.708;7.906;2023-03-24T02:35:02;7.90;;;3.05;;
77206;SDS011;66190;50.708;7.906;2023-03-24T02:40:22;8.35;;;2.90;;
77206;SDS011;66190;50.708;7.906;2023-03-24T02:45:36;6.93;;;2.78;;
77206;SDS011;66190;50.708;7.906;2023-03-24T02:58:48;7.70;;;3.33;;
77206;SDS011;66190;50.708;7.906;2023-03-24T03:01:20;7.95;;;2.90;;
77206;SDS011;66190;50.708;7.906;2023-03-24T03:04:14;7.97;;;3.03;;
77206;SDS011;66190;50.708;7.906;2023-03-24T03:06:43;7.55;;;3.00;;
77206;SDS011;66190;50.708;7.906;2023-03-24T03:09:17;8.52;;;3.55;;
77206;SDS011;66190;50.708;7.906;2023-03-24T03:11:46;7.30;;;3.22;;
77206;SDS011;66190;50.708;7.906;2023-03-24T03:14:34;6.93;;;2.97;;
77206;SDS011;66190;50.708;7.906;2023-03-24T03:17:10;8.52;;;3.60;;
77206;SDS011;66190;50.708;7.906;2023-03-24T03:19:57;6.75;;;3.03;;
77206;SDS011;66190;50.708;7.906;2023-03-24T03:22:32;8.35;;;3.40;;
77206;SDS011;66190;50.708;7.906;2023-03-24T03:25:03;6.50;;;2.60;;
77206;SDS011;66190;50.708;7.906;2023-03-24T03:27:33;8.20;;;3.63;;
77206;SDS011;66190;50.708;7.906;2023-03-24T03:30:14;7.03;;;2.83;;
77206;SDS011;66190;50.708;7.906;2023-03-24T03:32:44;8.82;;;3.75;;
77206;SDS011;66190;50.708;7.906;2023-03-24T03:35:23;8.48;;;3.60;;
77206;SDS011;66190;50.708;7.906;2023-03-24T03:40:26;7.13;;;2.97;;
77206;SDS011;66190;50.708;7.906;2023-03-24T03:42:56;10.25;;;3.40;;
77206;SDS011;66190;50.708;7.906;2023-03-24T03:45:22;7.47;;;3.08;;
77206;SDS011;66190;50.708;7.906;2023-03-24T03:47:48;7.87;;;3.67;;
77206;SDS011;66190;50.708;7.906;2023-03-24T03:50:14;8.38;;;3.53;;
77206;SDS011;66190;50.708;7.906;2023-03-24T03:52:40;7.65;;;3.42;;
77206;SDS011;66190;50.708;7.906;2023-03-24T03:55:08;8.47;;;3.27;;
77206;SDS011;66190;50.708;7.906;2023-03-24T03:57:35;8.60;;;3.58;;
77206;SDS011;66190;50.708;7.906;2023-03-24T04:00:03;8.70;;;3.70;;
77206;SDS011;66190;50.708;7.906;2023-03-24T04:02:45;8.48;;;3.72;;
77206;SDS011;66190;50.708;7.906;2023-03-24T04:12:14;9.18;;;3.55;;
77206;SDS011;66190;50.708;7.906;2023-03-24T04:14:57;7.40;;;3.65;;
77206;SDS011;66190;50.708;7.906;2023-03-24T04:18:05;8.38;;;3.28;;
77206;SDS011;66190;50.708;7.906;2023-03-24T04:21:05;9.32;;;3.53;;
77206;SDS011;66190;50.708;7.906;2023-03-24T04:26:27;9.43;;;3.72;;
77206;SDS011;66190;50.708;7.906;2023-03-24T04:29:02;8.20;;;3.75;;
77206;SDS011;66190;50.708;7.906;2023-03-24T04:34:10;8.52;;;4.05;;
77206;SDS011;66190;50.708;7.906;2023-03-24T04:36:46;8.87;;;3.80;;
77206;SDS011;66190;50.708;7.906;2023-03-24T04:39:18;7.95;;;3.58;;
77206;SDS011;66190;50.708;7.906;2023-03-24T04:41:52;8.88;;;3.92;;
77206;SDS011;66190;50.708;7.906;2023-03-24T04:44:20;9.27;;;3.85;;
77206;SDS011;66190;50.708;7.906;2023-03-24T04:46:47;7.78;;;3.78;;
77206;SDS011;66190;50.708;7.906;2023-03-24T04:49:14;7.78;;;3.42;;
77206;SDS011;66190;50.708;7.906;2023-03-24T04:51:40;10.68;;;3.95;;
77206;SDS011;66190;50.708;7.906;2023-03-24T04:54:08;9.35;;;4.00;;
77206;SDS011;66190;50.708;7.906;2023-03-24T04:56:36;8.57;;;3.20;;
77206;SDS011;66190;50.708;7.906;2023-03-24T04:59:05;10.02;;;4.30;;
77206;SDS011;66190;50.708;7.906;2023-03-24T05:01:31;9.67;;;3.77;;
77206;SDS011;66190;50.708;7.906;2023-03-24T05:03:57;11.40;;;3.70;;
77206;SDS011;66190;50.708;7.906;2023-03-24T05:06:23;9.00;;;3.70;;
77206;SDS011;66190;50.708;7.906;2023-03-24T05:08:49;8.63;;;4.00;;
77206;SDS011;66190;50.708;7.906;2023-03-24T05:11:16;9.73;;;3.60;;
77206;SDS011;66190;50.708;7.906;2023-03-24T05:13:43;9.35;;;4.03;;
77206;SDS011;66190;50.708;7.906;2023-03-24T05:16:08;9.47;;;3.97;;
77206;SDS011;66190;50.708;7.906;2023-03-24T05:18:34;8.88;;;3.83;;
77206;SDS011;66190;50.708;7.906;2023-03-24T05:20:59;7.87;;;3.73;;
77206;SDS011;66190;50.708;7.906;2023-03-24T05:23:25;8.37;;;3.93;;
77206;SDS011;66190;50.708;7.906;2023-03-24T05:25:50;8.40;;;3.40;;
77206;SDS011;66190;50.708;7.906;2023-03-24T05:28:16;8.40;;;4.13;;
77206;SDS011;66190;50.708;7.906;2023-03-24T05:30:41;8.00;;;3.13;;
77206;SDS011;66190;50.708;7.906;2023-03-24T05:33:06;7.90;;;3.83;;
77206;SDS011;66190;50.708;7.906;2023-03-24T05:35:32;9.87;;;4.30;;
77206;SDS011;66190;50.708;7.906;2023-03-24T05:37:57;11.00;;;4.33;;
77206;SDS011;66190;50.708;7.906;2023-03-24T05:40:23;8.70;;;4.17;;
77206;SDS011;66190;50.708;7.906;2023-03-24T05:42:48;7.78;;;3.78;;
77206;SDS011;66190;50.708;7.906;2023-03-24T05:45:15;8.80;;;3.93;;
77206;SDS011;66190;50.708;7.906;2023-03-24T05:47:40;7.90;;;3.17;;
77206;SDS011;66190;50.708;7.906;2023-03-24T05:50:06;8.73;;;4.13;;
77206;SDS011;66190;50.708;7.906;2023-03-24T05:52:31;9.35;;;3.63;;
77206;SDS011;66190;50.708;7.906;2023-03-24T05:54:57;10.18;;;3.88;;
77206;SDS011;66190;50.708;7.906;2023-03-24T05:57:23;8.53;;;4.10;;
77206;SDS011;66190;50.708;7.906;2023-03-24T05:59:48;7.55;;;3.42;;
77206;SDS011;66190;50.708;7.906;2023-03-24T06:02:14;7.63;;;3.37;;
77206;SDS011;66190;50.708;7.906;2023-03-24T06:04:39;9.23;;;3.70;;
77206;SDS011;66190;50.708;7.906;2023-03-24T06:07:10;8.32;;;3.05;;
77206;SDS011;66190;50.708;7.906;2023-03-24T06:09:35;7.15;;;3.10;;
77206;SDS011;66190;50.708;7.906;2023-03-24T06:12:01;7.17;;;2.90;;
77206;SDS011;66190;50.708;7.906;2023-03-24T06:14:27;7.25;;;2.92;;
77206;SDS011;66190;50.708;7.906;2023-03-24T06:16:53;8.03;;;2.93;;
77206;SDS011;66190;50.708;7.906;2023-03-24T06:19:23;8.07;;;3.13;;
77206;SDS011;66190;50.708;7.906;2023-03-24T06:21:49;7.00;;;3.20;;
77206;SDS011;66190;50.708;7.906;2023-03-24T06:24:15;6.70;;;2.90;;
77206;SDS011;66190;50.708;7.906;2023-03-24T06:26:41;8.00;;;3.88;;
77206;SDS011;66190;50.708;7.906;2023-03-24T06:29:08;7.28;;;2.83;;
77206;SDS011;66190;50.708;7.906;2023-03-24T06:31:34;7.07;;;3.28;;
77206;SDS011;66190;50.708;7.906;2023-03-24T06:34:01;7.43;;;2.67;;
77206;SDS011;66190;50.708;7.906;2023-03-24T06:36:28;8.02;;;2.42;;
77206;SDS011;66190;50.708;7.906;2023-03-24T06:38:54;7.57;;;2.97;;
77206;SDS011;66190;50.708;7.906;2023-03-24T06:41:20;5.60;;;1.42;;
77206;SDS011;66190;50.708;7.906;2023-03-24T06:43:46;6.13;;;1.92;;
77206;SDS011;66190;50.708;7.906;2023-03-24T06:46:11;4.77;;;1.40;;
77206;SDS011;66190;50.708;7.906;2023-03-24T06:48:37;5.60;;;2.20;;
77206;SDS011;66190;50.708;7.906;2023-03-24T06:51:03;5.60;;;1.60;;
77206;SDS011;66190;50.708;7.906;2023-03-24T06:53:29;4.82;;;1.27;;
77206;SDS011;66190;50.708;7.906;2023-03-24T06:55:54;3.57;;;1.00;;
77206;SDS011;66190;50.708;7.906;2023-03-24T06:58:20;4.83;;;1.10;;
77206;SDS011;66190;50.708;7.906;2023-03-24T07:00:45;5.03;;;1.23;;
77206;SDS011;66190;50.708;7.906;2023-03-24T07:03:12;5.07;;;1.20;;
77206;SDS011;66190;50.708;7.906;2023-03-24T07:05:39;4.00;;;0.90;;
77206;SDS011;66190;50.708;7.906;2023-03-24T07:08:07;4.38;;;0.98;;
77206;SDS011;66190;50.708;7.906;2023-03-24T07:10:36;6.72;;;1.17;;
77206;SDS011;66190;50.708;7.906;2023-03-24T07:13:04;5.80;;;1.00;;
77206;SDS011;66190;50.708;7.906;2023-03-24T07:15:30;6.38;;;1.63;;
77206;SDS011;66190;50.708;7.906;2023-03-24T07:17:56;4.95;;;1.30;;
77206;SDS011;66190;50.708;7.906;2023-03-24T07:20:21;5.40;;;1.00;;
77206;SDS011;66190;50.708;7.906;2023-03-24T07:22:47;4.07;;;0.93;;
77206;SDS011;66190;50.708;7.906;2023-03-24T07:25:12;4.40;;;1.00;;
77206;SDS011;66190;50.708;7.906;2023-03-24T07:27:38;5.57;;;1.10;;
77206;SDS011;66190;50.708;7.906;2023-03-24T07:30:04;4.55;;;1.25;;
77206;SDS011;66190;50.708;7.906;2023-03-24T07:32:31;6.53;;;1.30;;
77206;SDS011;66190;50.708;7.906;2023-03-24T07:34:58;4.65;;;1.10;;
77206;SDS011;66190;50.708;7.906;2023-03-24T07:37:25;6.05;;;1.48;;
77206;SDS011;66190;50.708;7.906;2023-03-24T07:39:50;5.53;;;1.50;;
77206;SDS011;66190;50.708;7.906;2023-03-24T07:42:16;6.00;;;2.23;;
77206;SDS011;66190;50.708;7.906;2023-03-24T07:44:41;8.37;;;3.13;;
77206;SDS011;66190;50.708;7.906;2023-03-24T07:47:06;12.47;;;7.90;;
77206;SDS011;66190;50.708;7.906;2023-03-24T07:49:32;10.60;;;6.20;;
77206;SDS011;66190;50.708;7.906;2023-03-24T07:51:57;8.57;;;4.07;;
77206;SDS011;66190;50.708;7.906;2023-03-24T07:54:23;7.05;;;2.17;;
77206;SDS011;66190;50.708;7.906;2023-03-24T07:56:49;12.07;;;5.93;;
77206;SDS011;66190;50.708;7.906;2023-03-24T07:59:14;8.60;;;2.00;;
77206;SDS011;66190;50.708;7.906;2023-03-24T08:01:41;5.25;;;2.00;;
77206;SDS011;66190;50.708;7.906;2023-03-24T08:04:08;6.43;;;1.70;;
77206;SDS011;66190;50.708;7.906;2023-03-24T08:06:36;6.35;;;2.20;;
77206;SDS011;66190;50.708;7.906;2023-03-24T08:09:02;6.40;;;1.50;;
77206;SDS011;66190;50.708;7.906;2023-03-24T08:11:28;6.07;;;1.30;;
77206;SDS011;66190;50.708;7.906;2023-03-24T08:13:53;5.63;;;1.23;;
77206;SDS011;66190;50.708;7.906;2023-03-24T08:16:19;6.00;;;1.15;;
77206;SDS011;66190;50.708;7.906;2023-03-24T08:18:45;5.30;;;1.20;;
77206;SDS011;66190;50.708;7.906;2023-03-24T08:21:12;3.95;;;1.00;;
77206;SDS011;66190;50.708;7.906;2023-03-24T08:23:38;6.45;;;1.00;;
77206;SDS011;66190;50.708;7.906;2023-03-24T08:26:03;6.10;;;1.00;;
77206;SDS011;66190;50.708;7.906;2023-03-24T08:28:29;6.27;;;1.60;;
77206;SDS011;66190;50.708;7.906;2023-03-24T08:30:54;7.83;;;2.33;;
77206;SDS011;66190;50.708;7.906;2023-03-24T08:33:20;6.88;;;1.83;;
77206;SDS011;66190;50.708;7.906;2023-03-24T08:35:45;6.68;;;1.77;;
77206;SDS011;66190;50.708;7.906;2023-03-24T08:38:11;9.80;;;2.13;;
77206;SDS011;66190;50.708;7.906;2023-03-24T08:40:39;5.78;;;1.40;;
77206;SDS011;66190;50.708;7.906;2023-03-24T08:43:06;6.90;;;1.77;;
77206;SDS011;66190;50.708;7.906;2023-03-24T08:45:36;7.75;;;1.45;;
77206;SDS011;66190;50.708;7.906;2023-03-24T08:48:03;7.40;;;1.17;;
77206;SDS011;66190;50.708;7.906;2023-03-24T08:50:34;7.22;;;1.10;;
77206;SDS011;66190;50.708;7.906;2023-03-24T08:53:01;8.07;;;1.10;;
77206;SDS011;66190;50.708;7.906;2023-03-24T08:55:28;6.18;;;1.23;;
77206;SDS011;66190;50.708;7.906;2023-03-24T08:57:53;5.50;;;1.30;;
77206;SDS011;66190;50.708;7.906;2023-03-24T09:00:20;6.50;;;1.70;;
77206;SDS011;66190;50.708;7.906;2023-03-24T09:02:53;5.68;;;1.20;;
77206;SDS011;66190;50.708;7.906;2023-03-24T09:05:20;8.88;;;1.60;;
77206;SDS011;66190;50.708;7.906;2023-03-24T09:07:46;6.10;;;1.40;;
77206;SDS011;66190;50.708;7.906;2023-03-24T09:10:13;7.93;;;1.63;;
77206;SDS011;66190;50.708;7.906;2023-03-24T09:12:40;7.13;;;1.25;;
77206;SDS011;66190;50.708;7.906;2023-03-24T09:15:06;7.18;;;1.63;;
77206;SDS011;66190;50.708;7.906;2023-03-24T09:17:33;6.30;;;1.50;;
77206;SDS011;66190;50.708;7.906;2023-03-24T09:19:59;6.55;;;1.20;;
77206;SDS011;66190;50.708;7.906;2023-03-24T09:22:25;7.30;;;1.45;;
77206;SDS011;66190;50.708;7.906;2023-03-24T09:24:51;6.53;;;1.67;;
77206;SDS011;66190;50.708;7.906;2023-03-24T09:27:17;6.25;;;1.70;;
77206;SDS011;66190;50.708;7.906;2023-03-24T09:29:43;7.43;;;2.23;;
77206;SDS011;66190;50.708;7.906;2023-03-24T09:32:09;6.97;;;1.95;;
77206;SDS011;66190;50.708;7.906;2023-03-24T09:34:35;7.78;;;1.80;;
77206;SDS011;66190;50.708;7.906;2023-03-24T09:37:01;10.88;;;1.85;;
77206;SDS011;66190;50.708;7.906;2023-03-24T09:39:26;8.47;;;2.97;;
77206;SDS011;66190;50.708;7.906;2023-03-24T09:41:52;6.43;;;2.20;;
77206;SDS011;66190;50.708;7.906;2023-03-24T09:46:59;8.02;;;2.17;;
77206;SDS011;66190;50.708;7.906;2023-03-24T09:49:31;7.95;;;2.47;;
77206;SDS011;66190;50.708;7.906;2023-03-24T09:52:04;11.85;;;4.00;;
77206;SDS011;66190;50.708;7.906;2023-03-24T09:57:02;10.60;;;5.20;;
77206;SDS011;66190;50.708;7.906;2023-03-24T09:59:32;10.27;;;1.95;;
77206;SDS011;66190;50.708;7.906;2023-03-24T10:02:00;9.90;;;2.40;;
77206;SDS011;66190;50.708;7.906;2023-03-24T10:04:26;6.53;;;2.10;;
77206;SDS011;66190;50.708;7.906;2023-03-24T10:07:16;10.30;;;1.67;;
77206;SDS011;66190;50.708;7.906;2023-03-24T10:09:45;6.00;;;2.00;;
77206;SDS011;66190;50.708;7.906;2023-03-24T10:12:23;6.53;;;1.63;;
77206;SDS011;66190;50.708;7.906;2023-03-24T10:20:30;5.40;;;1.30;;
77206;SDS011;66190;50.708;7.906;2023-03-24T10:25:38;7.13;;;1.58;;
77206;SDS011;66190;50.708;7.906;2023-03-24T10:28:18;6.55;;;1.33;;
77206;SDS011;66190;50.708;7.906;2023-03-24T10:30:47;6.22;;;1.13;;
77206;SDS011;66190;50.708;7.906;2023-03-24T10:33:16;6.23;;;1.10;;
77206;SDS011;66190;50.708;7.906;2023-03-24T10:38:39;9.03;;;2.07;;
77206;SDS011;66190;50.708;7.906;2023-03-24T10:41:06;8.40;;;1.80;;
77206;SDS011;66190;50.708;7.906;2023-03-24T10:43:33;7.25;;;1.23;;
77206;SDS011;66190;50.708;7.906;2023-03-24T10:46:00;9.50;;;1.98;;
77206;SDS011;66190;50.708;7.906;2023-03-24T10:51:03;4.60;;;1.30;;
77206;SDS011;66190;50.708;7.906;2023-03-24T10:53:30;6.65;;;1.33;;
77206;SDS011;66190;50.708;7.906;2023-03-24T10:55:57;6.45;;;1.00;;
77206;SDS011;66190;50.708;7.906;2023-03-24T11:04:03;7.97;;;1.30;;
77206;SDS011;66190;50.708;7.906;2023-03-24T11:06:31;5.55;;;1.10;;
77206;SDS011;66190;50.708;7.906;2023-03-24T11:09:08;6.40;;;1.05;;
77206;SDS011;66190;50.708;7.906;2023-03-24T11:11:42;7.07;;;1.95;;
77206;SDS011;66190;50.708;7.906;2023-03-24T11:14:17;8.00;;;1.30;;
77206;SDS011;66190;50.708;7.906;2023-03-24T11:16:46;9.00;;;1.20;;
77206;SDS011;66190;50.708;7.906;2023-03-24T11:19:19;5.10;;;1.20;;
77206;SDS011;66190;50.708;7.906;2023-03-24T11:21:47;8.32;;;1.40;;
77206;SDS011;66190;50.708;7.906;2023-03-24T11:24:15;10.02;;;2.60;;
77206;SDS011;66190;50.708;7.906;2023-03-24T11:26:49;5.55;;;1.95;;
77206;SDS011;66190;50.708;7.906;2023-03-24T11:29:28;6.93;;;1.40;;
77206;SDS011;66190;50.708;7.906;2023-03-24T11:32:03;4.70;;;1.00;;
77206;SDS011;66190;50.708;7.906;2023-03-24T11:34:46;5.30;;;1.30;;
77206;SDS011;66190;50.708;7.906;2023-03-24T11:37:17;8.98;;;1.15;;
77206;SDS011;66190;50.708;7.906;2023-03-24T11:40:03;5.95;;;1.55;;
77206;SDS011;66190;50.708;7.906;2023-03-24T11:42:37;7.03;;;1.45;;
77206;SDS011;66190;50.708;7.906;2023-03-24T11:47:50;3.30;;;0.80;;
77206;SDS011;66190;50.708;7.906;2023-03-24T11:50:18;5.03;;;0.95;;
77206;SDS011;66190;50.708;7.906;2023-03-24T11:52:51;4.20;;;0.90;;
77206;SDS011;66190;50.708;7.906;2023-03-24T11:55:23;5.85;;;1.00;;
77206;SDS011;66190;50.708;7.906;2023-03-24T11:58:02;7.03;;;1.20;;
77206;SDS011;66190;50.708;7.906;2023-03-24T12:00:32;5.13;;;1.10;;
77206;SDS011;66190;50.708;7.906;2023-03-24T12:03:16;7.50;;;1.20;;
77206;SDS011;66190;50.708;7.906;2023-03-24T12:05:51;4.93;;;1.00;;
77206;SDS011;66190;50.708;7.906;2023-03-24T12:08:48;6.25;;;1.10;;
77206;SDS011;66190;50.708;7.906;2023-03-24T12:11:34;6.10;;;1.00;;
77206;SDS011;66190;50.708;7.906;2023-03-24T12:14:01;5.60;;;1.42;;
77206;SDS011;66190;50.708;7.906;2023-03-24T12:16:35;7.10;;;1.20;;
77206;SDS011;66190;50.708;7.906;2023-03-24T12:19:18;5.57;;;1.00;;
77206;SDS011;66190;50.708;7.906;2023-03-24T12:36:16;5.60;;;1.30;;
77206;SDS011;66190;50.708;7.906;2023-03-24T12:39:11;5.38;;;1.08;;
77206;SDS011;66190;50.708;7.906;2023-03-24T12:41:56;5.22;;;0.80;;
77206;SDS011;66190;50.708;7.906;2023-03-24T12:47:28;4.93;;;0.90;;
77206;SDS011;66190;50.708;7.906;2023-03-24T13:01:01;5.57;;;1.00;;
77206;SDS011;66190;50.708;7.906;2023-03-24T13:03:43;6.82;;;1.23;;
77206;SDS011;66190;50.708;7.906;2023-03-24T13:06:18;5.13;;;1.08;;
77206;SDS011;66190;50.708;7.906;2023-03-24T13:08:52;5.13;;;0.90;;
77206;SDS011;66190;50.708;7.906;2023-03-24T13:11:53;4.43;;;1.00;;
77206;SDS011;66190;50.708;7.906;2023-03-24T13:14:27;4.43;;;0.82;;
77206;SDS011;66190;50.708;7.906;2023-03-24T13:16:59;4.75;;;0.90;;
77206;SDS011;66190;50.708;7.906;2023-03-24T13:19:28;9.18;;;1.30;;
77206;SDS011;66190;50.708;7.906;2023-03-24T13:21:55;6.80;;;1.40;;
77206;SDS011;66190;50.708;7.906;2023-03-24T13:24:21;4.78;;;1.23;;
77206;SDS011;66190;50.708;7.906;2023-03-24T13:37:50;5.50;;;1.20;;
77206;SDS011;66190;50.708;7.906;2023-03-24T13:42:51;5.70;;;1.10;;
77206;SDS011;66190;50.708;7.906;2023-03-24T13:45:23;5.20;;;1.40;;
77206;SDS011;66190;50.708;7.906;2023-03-24T13:50:33;7.05;;;1.25;;
77206;SDS011;66190;50.708;7.906;2023-03-24T13:53:10;6.60;;;1.20;;
77206;SDS011;66190;50.708;7.906;2023-03-24T13:55:47;4.18;;;0.73;;
77206;SDS011;66190;50.708;7.906;2023-03-24T13:58:18;4.65;;;1.27;;
77206;SDS011;66190;50.708;7.906;2023-03-24T14:03:31;2.75;;;0.70;;
77206;SDS011;66190;50.708;7.906;2023-03-24T14:06:02;4.75;;;1.00;;
77206;SDS011;66190;50.708;7.906;2023-03-24T14:17:01;5.10;;;0.82;;
77206;SDS011;66190;50.708;7.906;2023-03-24T14:19:44;5.28;;;1.00;;
77206;SDS011;66190;50.708;7.906;2023-03-24T14:22:33;4.35;;;0.90;;
77206;SDS011;66190;50.708;7.906;2023-03-24T14:25:05;3.95;;;1.25;;
77206;SDS011;66190;50.708;7.906;2023-03-24T14:27:46;3.83;;;0.90;;
77206;SDS011;66190;50.708;7.906;2023-03-24T14:32:51;6.90;;;1.02;;
77206;SDS011;66190;50.708;7.906;2023-03-24T14:37:56;5.05;;;0.70;;
77206;SDS011;66190;50.708;7.906;2023-03-24T14:40:38;4.38;;;0.70;;
77206;SDS011;66190;50.708;7.906;2023-03-24T14:45:55;6.65;;;1.20;;
77206;SDS011;66190;50.708;7.906;2023-03-24T14:48:26;7.63;;;1.25;;
77206;SDS011;66190;50.708;7.906;2023-03-24T14:54:18;6.75;;;0.82;;
77206;SDS011;66190;50.708;7.906;2023-03-24T14:56:49;4.93;;;0.80;;
77206;SDS011;66190;50.708;7.906;2023-03-24T14:59:26;4.63;;;0.77;;
77206;SDS011;66190;50.708;7.906;2023-03-24T15:02:03;4.55;;;0.85;;
77206;SDS011;66190;50.708;7.906;2023-03-24T15:04:37;3.70;;;0.85;;
77206;SDS011;66190;50.708;7.906;2023-03-24T15:07:09;3.60;;;0.80;;
77206;SDS011;66190;50.708;7.906;2023-03-24T15:09:38;3.37;;;0.77;;
77206;SDS011;66190;50.708;7.906;2023-03-24T15:12:12;6.50;;;1.20;;
77206;SDS011;66190;50.708;7.906;2023-03-24T15:14:37;4.50;;;1.13;;
77206;SDS011;66190;50.708;7.906;2023-03-24T15:17:05;4.28;;;0.90;;
77206;SDS011;66190;50.708;7.906;2023-03-24T15:19:42;6.73;;;1.53;;
77206;SDS011;66190;50.708;7.906;2023-03-24T15:22:10;2.78;;;0.50;;
77206;SDS011;66190;50.708;7.906;2023-03-24T15:24:40;3.30;;;0.77;;
77206;SDS011;66190;50.708;7.906;2023-03-24T15:29:31;4.07;;;0.80;;
77206;SDS011;66190;50.708;7.906;2023-03-24T15:31:57;3.95;;;0.88;;
77206;SDS011;66190;50.708;7.906;2023-03-24T15:36:59;6.78;;;1.40;;
77206;SDS011;66190;50.708;7.906;2023-03-24T15:39:33;5.72;;;1.10;;
77206;SDS011;66190;50.708;7.906;2023-03-24T15:42:03;5.47;;;0.80;;
77206;SDS011;66190;50.708;7.906;2023-03-24T15:44:36;3.95;;;1.10;;
77206;SDS011;66190;50.708;7.906;2023-03-24T15:47:03;4.87;;;1.17;;
77206;SDS011;66190;50.708;7.906;2023-03-24T15:49:44;4.55;;;0.80;;
77206;SDS011;66190;50.708;7.906;2023-03-24T15:54:51;5.55;;;1.23;;
77206;SDS011;66190;50.708;7.906;2023-03-24T15:57:22;4.93;;;0.93;;
77206;SDS011;66190;50.708;7.906;2023-03-24T15:59:55;4.68;;;1.27;;
77206;SDS011;66190;50.708;7.906;2023-03-24T16:02:50;5.72;;;1.00;;
77206;SDS011;66190;50.708;7.906;2023-03-24T16:07:43;5.38;;;1.08;;
77206;SDS011;66190;50.708;7.906;2023-03-24T16:10:33;4.35;;;1.13;;
77206;SDS011;66190;50.708;7.906;2023-03-24T16:15:45;5.20;;;1.48;;
77206;SDS011;66190;50.708;7.906;2023-03-24T16:18:13;6.85;;;1.10;;
77206;SDS011;66190;50.708;7.906;2023-03-24T16:20:40;6.10;;;0.90;;
77206;SDS011;66190;50.708;7.906;2023-03-24T16:23:07;5.30;;;1.60;;
77206;SDS011;66190;50.708;7.906;2023-03-24T16:25:34;4.95;;;1.20;;
77206;SDS011;66190;50.708;7.906;2023-03-24T16:27:59;6.80;;;1.30;;
77206;SDS011;66190;50.708;7.906;2023-03-24T16:30:37;5.03;;;0.97;;
77206;SDS011;66190;50.708;7.906;2023-03-24T16:33:43;10.60;;;3.53;;
77206;SDS011;66190;50.708;7.906;2023-03-24T16:36:10;5.73;;;1.50;;
77206;SDS011;66190;50.708;7.906;2023-03-24T16:38:37;7.38;;;1.77;;
77206;SDS011;66190;50.708;7.906;2023-03-24T16:41:03;4.82;;;1.30;;
77206;SDS011;66190;50.708;7.906;2023-03-24T16:43:28;6.20;;;1.10;;
77206;SDS011;66190;50.708;7.906;2023-03-24T16:45:57;4.97;;;1.00;;
77206;SDS011;66190;50.708;7.906;2023-03-24T16:48:22;4.97;;;1.10;;
77206;SDS011;66190;50.708;7.906;2023-03-24T16:50:49;6.13;;;1.15;;
77206;SDS011;66190;50.708;7.906;2023-03-24T16:53:16;5.22;;;1.30;;
77206;SDS011;66190;50.708;7.906;2023-03-24T16:55:42;4.32;;;1.05;;
77206;SDS011;66190;50.708;7.906;2023-03-24T16:58:09;3.97;;;0.68;;
77206;SDS011;66190;50.708;7.906;2023-03-24T17:00:37;6.25;;;1.00;;
77206;SDS011;66190;50.708;7.906;2023-03-24T17:03:03;5.25;;;0.95;;
77206;SDS011;66190;50.708;7.906;2023-03-24T17:08:07;4.50;;;0.87;;
77206;SDS011;66190;50.708;7.906;2023-03-24T17:10:34;6.78;;;1.10;;
77206;SDS011;66190;50.708;7.906;2023-03-24T17:13:00;9.18;;;1.77;;
77206;SDS011;66190;50.708;7.906;2023-03-24T17:15:27;12.37;;;3.80;;
77206;SDS011;66190;50.708;7.906;2023-03-24T17:17:53;7.72;;;1.70;;
77206;SDS011;66190;50.708;7.906;2023-03-24T17:20:20;8.07;;;1.38;;
77206;SDS011;66190;50.708;7.906;2023-03-24T17:22:50;10.20;;;3.75;;
77206;SDS011;66190;50.708;7.906;2023-03-24T17:25:19;6.63;;;1.83;;
77206;SDS011;66190;50.708;7.906;2023-03-24T17:27:46;4.03;;;1.20;;
77206;SDS011;66190;50.708;7.906;2023-03-24T17:30:16;6.15;;;1.40;;
77206;SDS011;66190;50.708;7.906;2023-03-24T17:32:44;5.47;;;1.00;;
77206;SDS011;66190;50.708;7.906;2023-03-24T17:35:10;5.97;;;1.38;;
77206;SDS011;66190;50.708;7.906;2023-03-24T17:37:37;7.60;;;2.50;;
77206;SDS011;66190;50.708;7.906;2023-03-24T17:40:03;7.40;;;1.35;;